createdAt,value
2023-04-10T00:00:20.898Z,4.70
2023-04-10T00:02:20.869Z,4.60
2023-04-10T00:04:20.728Z,4.50
2023-04-10T00:06:20.711Z,4.40
2023-04-10T00:08:20.730Z,4.40
2023-04-10T00:10:20.702Z,4.40
2023-04-10T00:12:20.712Z,4.20
2023-04-10T00:14:20.731Z,4.20
2023-04-10T00:16:20.745Z,4.20
2023-04-10T00:18:20.668Z,4.20
2023-04-10T00:20:20.699Z,4.20
2023-04-10T00:22:21.061Z,4.20
2023-04-10T00:24:20.689Z,4.20
2023-04-10T00:26:20.764Z,4.30
2023-04-10T00:28:20.673Z,4.30
2023-04-10T00:30:20.917Z,4.30
2023-04-10T00:32:20.815Z,4.40
2023-04-10T00:34:20.700Z,4.50
2023-04-10T00:36:25.619Z,4.50
2023-04-10T00:38:20.698Z,4.50
2023-04-10T00:40:23.054Z,4.60
2023-04-10T00:42:20.681Z,4.70
2023-04-10T00:44:20.735Z,4.70
2023-04-10T00:46:20.711Z,4.70
2023-04-10T00:48:20.786Z,4.70
2023-04-10T00:50:20.705Z,4.70
2023-04-10T00:52:20.696Z,4.80
2023-04-10T00:54:20.686Z,4.90
2023-04-10T00:56:20.701Z,4.90
2023-04-10T00:58:20.755Z,4.90
2023-04-10T01:00:20.937Z,4.90
2023-04-10T01:02:20.879Z,4.90
2023-04-10T01:07:20.757Z,4.90
2023-04-10T01:09:20.738Z,4.90
2023-04-10T01:11:20.682Z,4.90
2023-04-10T01:13:20.683Z,4.80
2023-04-10T01:15:21.148Z,4.80
2023-04-10T01:17:20.686Z,4.70
2023-04-10T01:19:20.957Z,4.70
2023-04-10T01:21:20.701Z,4.70
2023-04-10T01:23:23.553Z,4.60
2023-04-10T01:25:20.800Z,4.60
2023-04-10T01:27:20.705Z,4.50
2023-04-10T01:29:20.702Z,4.50
2023-04-10T01:31:20.853Z,4.50
2023-04-10T01:33:20.754Z,4.30
2023-04-10T01:35:20.701Z,4.30
2023-04-10T01:37:20.902Z,4.20
2023-04-10T01:39:20.899Z,4.20
2023-04-10T01:41:20.743Z,4.00
2023-04-10T01:43:20.750Z,3.80
2023-04-10T01:45:20.773Z,3.70
2023-04-10T01:47:20.779Z,3.50
2023-04-10T01:49:25.617Z,3.50
2023-04-10T01:51:24.558Z,3.40
2023-04-10T01:53:20.685Z,3.30
2023-04-10T01:55:20.754Z,3.30
2023-04-10T01:57:20.817Z,3.30
2023-04-10T01:59:20.692Z,3.30
2023-04-10T02:01:29.204Z,3.20
2023-04-10T02:03:20.853Z,3.20
2023-04-10T02:05:20.766Z,3.10
2023-04-10T02:07:20.715Z,3.10
2023-04-10T02:09:20.910Z,3.00
2023-04-10T02:11:20.772Z,3.00
2023-04-10T02:13:20.866Z,2.80
2023-04-10T02:15:20.774Z,2.80
2023-04-10T02:17:20.890Z,2.80
2023-04-10T02:19:21.712Z,2.80
2023-04-10T02:21:20.814Z,2.90
2023-04-10T02:23:20.870Z,3.00
2023-04-10T02:25:20.717Z,3.00
2023-04-10T02:27:21.070Z,3.00
2023-04-10T02:29:20.787Z,3.10
2023-04-10T02:31:20.747Z,3.10
2023-04-10T02:33:20.753Z,3.10
2023-04-10T02:35:21.990Z,3.10
2023-04-10T02:37:20.764Z,3.10
2023-04-10T02:39:20.748Z,3.30
2023-04-10T02:41:20.762Z,3.40
2023-04-10T02:43:20.818Z,3.50
2023-04-10T02:45:21.501Z,3.50
2023-04-10T02:47:20.722Z,3.60
2023-04-10T02:49:20.760Z,3.80
2023-04-10T02:51:20.795Z,3.80
2023-04-10T02:53:20.745Z,3.80
2023-04-10T02:55:20.962Z,4.00
2023-04-10T02:57:20.822Z,3.90
2023-04-10T02:59:21.112Z,4.10
2023-04-10T03:01:20.940Z,4.10
2023-04-10T03:03:21.101Z,4.10
2023-04-10T03:05:20.914Z,4.10
2023-04-10T03:07:20.797Z,4.10
2023-04-10T03:09:20.779Z,4.00
2023-04-10T03:11:20.858Z,4.00
2023-04-10T03:13:20.782Z,4.00
2023-04-10T03:15:20.996Z,4.00
2023-04-10T03:19:35.201Z,4.10
2023-04-10T03:23:21.065Z,3.90
2023-04-10T03:25:36.071Z,3.70
2023-04-10T03:27:36.058Z,3.50
2023-04-10T03:29:36.557Z,3.40
2023-04-10T03:31:36.660Z,3.40
2023-04-10T03:33:41.549Z,3.40
2023-04-10T03:35:36.827Z,3.00
2023-04-10T03:37:36.501Z,3.10
2023-04-10T03:39:36.952Z,3.20
2023-04-10T03:41:36.445Z,3.20
2023-04-10T03:43:36.527Z,3.30
2023-04-10T03:45:36.503Z,3.20
2023-04-10T03:47:36.120Z,3.40
2023-04-10T03:49:36.590Z,3.50
2023-04-10T03:51:36.876Z,3.50
2023-04-10T03:53:36.429Z,3.50
2023-04-10T03:55:36.036Z,3.50
2023-04-10T03:57:36.126Z,3.50
2023-04-10T03:59:38.856Z,3.50
2023-04-10T04:01:36.073Z,3.50
2023-04-10T04:03:36.135Z,3.50
2023-04-10T04:05:36.024Z,3.50
2023-04-10T04:07:36.129Z,3.50
2023-04-10T04:09:36.163Z,3.50
2023-04-10T04:11:36.059Z,3.60
2023-04-10T04:13:36.180Z,3.60
2023-04-10T04:15:36.091Z,3.80
2023-04-10T04:17:36.092Z,3.90
2023-04-10T04:19:36.044Z,3.90
2023-04-10T04:21:36.070Z,3.90
2023-04-10T04:23:39.517Z,4.00
2023-04-10T04:25:36.076Z,4.00
2023-04-10T04:27:36.025Z,4.00
2023-04-10T04:29:36.071Z,3.90
2023-04-10T04:31:36.148Z,4.00
2023-04-10T04:33:36.074Z,4.10
2023-04-10T04:35:36.098Z,4.20
2023-04-10T04:37:36.230Z,4.20
2023-04-10T04:39:36.012Z,4.20
2023-04-10T04:41:36.263Z,4.20
2023-04-10T04:43:36.024Z,4.20
2023-04-10T04:45:36.211Z,4.20
2023-04-10T04:47:36.145Z,4.20
2023-04-10T04:49:36.049Z,4.30
2023-04-10T04:51:36.072Z,4.40
2023-04-10T04:53:38.400Z,4.40
2023-04-10T04:55:36.196Z,4.40
2023-04-10T04:57:36.093Z,4.30
2023-04-10T04:59:36.133Z,4.30
2023-04-10T05:01:36.179Z,4.30
2023-04-10T05:03:36.274Z,4.30
2023-04-10T05:05:36.076Z,4.30
2023-04-10T05:07:36.131Z,4.30
2023-04-10T05:09:36.274Z,4.30
2023-04-10T05:11:36.125Z,4.30
2023-04-10T05:13:38.873Z,4.30
2023-04-10T05:15:36.057Z,4.30
2023-04-10T05:17:36.262Z,4.20
2023-04-10T05:19:36.087Z,4.10
2023-04-10T05:21:36.227Z,3.90
2023-04-10T05:23:36.184Z,3.90
2023-04-10T05:25:36.702Z,3.70
2023-04-10T05:27:36.207Z,3.70
2023-04-10T05:29:36.233Z,3.70
2023-04-10T05:31:37.080Z,3.80
2023-04-10T05:33:36.260Z,3.80
2023-04-10T05:35:36.119Z,3.80
2023-04-10T05:37:36.094Z,3.70
2023-04-10T05:39:40.987Z,3.90
2023-04-10T05:41:36.063Z,3.90
2023-04-10T05:43:36.069Z,3.90
2023-04-10T05:46:36.498Z,4.20
2023-04-10T05:48:36.226Z,4.20
2023-04-10T05:50:36.124Z,4.30
2023-04-10T05:52:36.341Z,4.60
2023-04-10T05:54:36.521Z,4.80
2023-04-10T05:56:36.155Z,4.80
2023-04-10T05:58:41.009Z,5.20
2023-04-10T06:00:36.304Z,5.20
2023-04-10T06:02:36.398Z,5.60
2023-04-10T06:04:36.576Z,5.70
2023-04-10T06:06:36.107Z,5.70
2023-04-10T06:08:36.124Z,5.80
2023-04-10T06:10:37.742Z,5.90
2023-04-10T06:12:36.156Z,6.00
2023-04-10T06:14:36.384Z,6.00
2023-04-10T06:16:36.172Z,6.00
2023-04-10T06:18:36.113Z,6.10
2023-04-10T06:20:36.171Z,6.10
2023-04-10T06:22:36.098Z,6.30
2023-04-10T06:24:36.096Z,6.30
2023-04-10T06:26:36.139Z,6.30
2023-04-10T06:28:37.503Z,6.30
2023-04-10T06:30:36.189Z,6.40
2023-04-10T06:32:36.346Z,6.40
2023-04-10T06:34:36.139Z,6.40
2023-04-10T06:36:36.140Z,6.40
2023-04-10T06:38:36.402Z,6.40
2023-04-10T06:40:36.153Z,6.60
2023-04-10T06:42:36.139Z,6.70
2023-04-10T06:44:36.174Z,6.70
2023-04-10T06:46:36.286Z,6.70
2023-04-10T06:48:36.187Z,6.70
2023-04-10T06:50:36.515Z,6.70
2023-04-10T06:52:36.205Z,6.80
2023-04-10T06:54:36.158Z,6.80
2023-04-10T06:56:38.507Z,6.80
2023-04-10T06:58:36.366Z,7.00
2023-04-10T07:00:36.173Z,7.10
2023-04-10T07:02:36.250Z,7.10
2023-04-10T07:04:36.485Z,7.10
2023-04-10T07:06:36.314Z,7.10
2023-04-10T07:08:36.181Z,7.20
2023-04-10T07:10:36.244Z,7.20
2023-04-10T07:12:41.560Z,7.20
2023-04-10T07:14:36.256Z,7.30
2023-04-10T07:16:36.167Z,7.40
2023-04-10T07:18:36.210Z,7.50
2023-04-10T07:20:41.072Z,7.60
2023-04-10T07:22:36.214Z,7.60
2023-04-10T07:24:38.449Z,7.80
2023-04-10T07:26:36.124Z,7.90
2023-04-10T07:28:36.172Z,8.00
2023-04-10T07:30:36.218Z,8.00
2023-04-10T07:32:36.542Z,8.10
2023-04-10T07:34:36.246Z,8.10
2023-04-10T07:36:36.380Z,8.10
2023-04-10T07:38:36.360Z,8.40
2023-04-10T07:40:36.243Z,8.40
2023-04-10T07:42:36.229Z,8.40
2023-04-10T07:44:36.223Z,8.40
2023-04-10T07:46:36.206Z,8.50
2023-04-10T07:48:36.198Z,8.70
2023-04-10T07:50:41.056Z,8.70
2023-04-10T07:52:36.133Z,8.70
2023-04-10T07:54:36.152Z,8.80
2023-04-10T07:56:36.529Z,8.80
2023-04-10T07:58:36.263Z,8.80
2023-04-10T08:00:36.230Z,8.80
2023-04-10T08:02:36.393Z,8.80
2023-04-10T08:04:36.632Z,8.90
2023-04-10T08:06:36.164Z,9.00
2023-04-10T08:08:36.183Z,9.00
2023-04-10T08:10:36.321Z,9.20
2023-04-10T08:12:36.277Z,9.40
2023-04-10T08:14:36.215Z,9.50
2023-04-10T08:16:36.241Z,9.50
2023-04-10T08:18:36.584Z,9.50
2023-04-10T08:20:38.528Z,10.10
2023-04-10T08:22:36.154Z,10.20
2023-04-10T08:24:36.212Z,10.40
2023-04-10T08:26:36.178Z,10.40
2023-04-10T08:28:36.218Z,10.60
2023-04-10T08:30:36.264Z,10.60
2023-04-10T08:32:41.444Z,10.80
2023-04-10T08:34:36.219Z,11.00
2023-04-10T08:36:36.272Z,11.00
2023-04-10T08:38:36.355Z,11.20
2023-04-10T08:40:36.935Z,11.30
2023-04-10T08:42:40.347Z,11.60
2023-04-10T08:44:36.220Z,11.60
2023-04-10T08:46:36.269Z,11.60
2023-04-10T08:48:36.216Z,11.40
2023-04-10T08:50:36.317Z,11.40
2023-04-10T08:52:36.268Z,11.70
2023-04-10T08:54:36.158Z,11.90
2023-04-10T08:56:39.130Z,11.90
2023-04-10T08:58:36.294Z,11.90
2023-04-10T09:00:36.390Z,12.50
2023-04-10T09:02:37.020Z,12.80
2023-04-10T09:04:37.833Z,12.80
2023-04-10T09:06:36.502Z,12.90
2023-04-10T09:08:39.298Z,13.00
2023-04-10T09:10:41.181Z,12.90
2023-04-10T09:12:36.443Z,12.60
2023-04-10T09:14:36.784Z,12.60
2023-04-10T09:16:36.292Z,12.80
2023-04-10T09:18:36.214Z,13.00
2023-04-10T09:20:36.453Z,13.10
2023-04-10T09:22:36.489Z,13.70
2023-04-10T09:24:36.396Z,13.70
2023-04-10T09:28:44.588Z,13.20
2023-04-10T09:30:44.553Z,13.00
2023-04-10T09:32:44.617Z,13.00
2023-04-10T09:34:44.583Z,13.00
2023-04-10T09:36:44.650Z,13.00
2023-04-10T09:38:44.644Z,13.00
2023-04-10T09:40:44.567Z,13.20
2023-04-10T09:42:44.567Z,13.20
2023-04-10T09:44:47.398Z,13.60
2023-04-10T09:46:44.572Z,13.70
2023-04-10T09:48:44.558Z,13.70
2023-04-10T09:50:44.957Z,13.90
2023-04-10T09:52:44.884Z,13.90
2023-04-10T09:54:44.810Z,13.90
2023-04-10T09:56:44.632Z,14.20
2023-04-10T09:58:44.756Z,14.30
2023-04-10T10:00:44.649Z,14.30
2023-04-10T10:02:44.732Z,14.60
2023-04-10T10:04:44.845Z,14.30
2023-04-10T10:06:45.495Z,14.20
2023-04-10T10:08:44.583Z,13.90
2023-04-10T10:10:44.598Z,13.90
2023-04-10T10:12:44.576Z,13.70
2023-04-10T10:15:47.696Z,14.20
2023-04-10T10:17:44.814Z,14.10
2023-04-10T10:19:44.936Z,14.10
2023-04-10T10:21:44.574Z,14.40
2023-04-10T10:23:44.697Z,14.30
2023-04-10T10:25:44.674Z,14.30
2023-04-10T10:27:44.671Z,14.50
2023-04-10T10:29:44.668Z,14.60
2023-04-10T10:31:44.691Z,14.60
2023-04-10T10:33:44.663Z,14.60
2023-04-10T10:35:44.709Z,14.70
2023-04-10T10:37:44.635Z,15.20
2023-04-10T10:39:44.658Z,15.30
2023-04-10T10:41:44.605Z,15.40
2023-04-10T10:43:44.730Z,15.40
2023-04-10T10:45:44.721Z,15.60
2023-04-10T10:47:44.609Z,15.60
2023-04-10T10:49:44.690Z,15.60
2023-04-10T10:51:44.668Z,15.90
2023-04-10T10:53:44.674Z,15.90
2023-04-10T10:55:44.660Z,15.70
2023-04-10T10:57:48.275Z,15.90
2023-04-10T10:59:44.692Z,15.90
2023-04-10T11:01:44.774Z,15.90
2023-04-10T11:03:44.842Z,15.70
2023-04-10T11:05:44.689Z,15.50
2023-04-10T11:07:44.760Z,15.10
2023-04-10T11:09:44.717Z,15.00
2023-04-10T11:11:45.168Z,15.00
2023-04-10T11:13:47.797Z,15.00
2023-04-10T11:15:44.703Z,15.50
2023-04-10T11:17:44.874Z,15.60
2023-04-10T11:19:45.651Z,16.30
2023-04-10T11:21:46.809Z,16.30
2023-04-10T11:23:45.365Z,16.60
2023-04-10T11:25:44.700Z,16.20
2023-04-10T11:27:45.041Z,16.00
2023-04-10T11:29:46.228Z,16.00
2023-04-10T11:31:44.660Z,16.20
2023-04-10T11:33:49.620Z,16.00
2023-04-10T11:35:44.864Z,16.40
2023-04-10T11:37:44.751Z,16.40
2023-04-10T11:39:44.684Z,16.40
2023-04-10T11:41:44.662Z,16.40
2023-04-10T11:43:45.190Z,16.10
2023-04-10T11:45:44.733Z,16.10
2023-04-10T11:47:44.718Z,16.10
2023-04-10T11:49:44.682Z,16.10
2023-04-10T11:51:44.688Z,16.00
2023-04-10T11:53:44.697Z,16.20
2023-04-10T11:55:44.721Z,16.30
2023-04-10T11:57:44.744Z,16.50
2023-04-10T11:59:44.701Z,16.50
2023-04-10T12:01:44.802Z,16.50
2023-04-10T12:03:44.875Z,16.50
2023-04-10T12:05:44.725Z,16.10
2023-04-10T12:07:44.778Z,16.10
2023-04-10T12:09:44.711Z,16.40
2023-04-10T12:11:44.737Z,16.30
2023-04-10T12:13:45.998Z,16.10
2023-04-10T12:15:44.711Z,16.20
2023-04-10T12:17:44.928Z,16.20
2023-04-10T12:19:44.750Z,16.40
2023-04-10T12:21:44.667Z,16.40
2023-04-10T12:23:44.638Z,17.00
2023-04-10T12:25:44.688Z,16.50
2023-04-10T12:27:44.779Z,16.50
2023-04-10T12:29:45.028Z,16.60
2023-04-10T12:31:44.901Z,16.70
2023-04-10T12:33:44.715Z,16.30
2023-04-10T12:35:44.839Z,16.30
2023-04-10T12:37:44.778Z,16.50
2023-04-10T12:39:48.468Z,16.50
2023-04-10T12:41:44.764Z,17.20
2023-04-10T12:43:44.729Z,17.20
2023-04-10T12:45:44.712Z,17.20
2023-04-10T12:47:44.803Z,17.30
2023-04-10T12:49:44.885Z,16.80
2023-04-10T12:51:44.744Z,16.80
2023-04-10T12:53:44.986Z,17.20
2023-04-10T12:55:44.688Z,17.20
2023-04-10T12:57:49.617Z,17.60
2023-04-10T12:59:44.704Z,17.10
2023-04-10T13:01:44.875Z,17.10
2023-04-10T13:03:44.965Z,17.10
2023-04-10T13:05:45.034Z,16.60
2023-04-10T13:07:44.708Z,17.30
2023-04-10T13:09:44.755Z,17.60
2023-04-10T13:11:45.959Z,17.10
2023-04-10T13:13:44.720Z,17.10
2023-04-10T13:15:44.986Z,16.90
2023-04-10T13:17:44.920Z,16.90
2023-04-10T13:19:44.767Z,17.40
2023-04-10T13:21:44.846Z,17.50
2023-04-10T13:23:44.936Z,17.50
2023-04-10T13:25:44.852Z,17.50
2023-04-10T13:27:45.021Z,17.00
2023-04-10T13:29:44.742Z,17.60
2023-04-10T13:31:44.764Z,17.60
2023-04-10T13:33:44.770Z,17.60
2023-04-10T13:35:44.853Z,18.00
2023-04-10T13:37:44.703Z,18.00
2023-04-10T13:39:49.667Z,17.40
2023-04-10T13:41:44.884Z,17.40
2023-04-10T13:43:44.880Z,17.40
2023-04-10T13:45:50.529Z,17.00
2023-04-10T13:47:44.790Z,17.30
2023-04-10T13:49:44.747Z,17.40
2023-04-10T13:51:44.814Z,17.40
2023-04-10T13:53:44.861Z,17.10
2023-04-10T13:55:45.031Z,16.40
2023-04-10T13:57:44.997Z,16.10
2023-04-10T13:59:47.185Z,16.00
2023-04-10T14:01:44.920Z,16.00
2023-04-10T14:03:45.014Z,16.40
2023-04-10T14:05:44.809Z,16.50
2023-04-10T14:07:47.697Z,16.40
2023-04-10T14:09:44.810Z,16.40
2023-04-10T14:11:44.878Z,16.40
2023-04-10T14:13:44.857Z,16.20
2023-04-10T14:16:45.016Z,16.10
2023-04-10T14:18:44.856Z,15.90
2023-04-10T14:20:44.868Z,16.00
2023-04-10T14:22:44.842Z,16.00
2023-04-10T14:24:45.212Z,16.00
2023-04-10T14:26:44.860Z,16.10
2023-04-10T14:28:49.777Z,16.10
2023-04-10T14:30:44.772Z,16.00
2023-04-10T14:32:44.904Z,16.00
2023-04-10T14:34:44.856Z,15.90
2023-04-10T14:36:44.770Z,16.00
2023-04-10T14:38:44.922Z,15.90
2023-04-10T14:40:44.798Z,15.90
2023-04-10T14:42:44.835Z,15.90
2023-04-10T14:44:44.829Z,15.80
2023-04-10T14:46:44.836Z,15.60
2023-04-10T14:48:46.975Z,15.50
2023-04-10T14:50:44.954Z,15.30
2023-04-10T14:52:44.879Z,15.30
2023-04-10T14:54:44.836Z,15.40
2023-04-10T14:56:44.821Z,15.40
2023-04-10T14:58:45.134Z,15.50
2023-04-10T15:00:44.933Z,15.30
2023-04-10T15:02:45.064Z,15.30
2023-04-10T15:04:44.955Z,15.30
2023-04-10T15:06:44.896Z,15.00
2023-04-10T15:08:45.097Z,15.00
2023-04-10T15:10:44.921Z,15.00
2023-04-10T15:12:49.822Z,15.00
2023-04-10T15:14:44.826Z,15.20
2023-04-10T15:16:46.927Z,15.20
2023-04-10T15:18:44.905Z,15.20
2023-04-10T15:20:49.802Z,15.20
2023-04-10T15:22:45.011Z,15.20
2023-04-10T15:24:50.570Z,15.20
2023-04-10T15:26:44.969Z,15.20
2023-04-10T15:28:44.923Z,15.00
2023-04-10T15:30:45.104Z,15.00
2023-04-10T15:32:44.862Z,15.00
2023-04-10T15:34:45.265Z,15.00
2023-04-10T15:36:44.993Z,15.00
2023-04-10T15:40:28.476Z,14.80
2023-04-10T15:42:25.472Z,14.70
2023-04-10T15:44:25.350Z,14.70
2023-04-10T15:46:25.418Z,14.60
2023-04-10T15:48:25.434Z,14.60
2023-04-10T15:50:25.354Z,14.70
2023-04-10T15:52:25.362Z,14.60
2023-04-10T15:54:25.384Z,14.70
2023-04-10T15:56:25.368Z,14.90
2023-04-10T15:58:25.490Z,14.90
2023-04-10T16:00:25.527Z,14.80
2023-04-10T16:02:25.662Z,14.70
2023-04-10T16:04:25.534Z,14.60
2023-04-10T16:06:25.975Z,14.60
2023-04-10T16:08:25.475Z,14.60
2023-04-10T16:10:25.442Z,14.50
2023-04-10T16:12:25.384Z,14.40
2023-04-10T16:14:26.641Z,14.30
2023-04-10T16:16:25.519Z,14.30
2023-04-10T16:18:25.400Z,14.20
2023-04-10T16:20:30.339Z,14.10
2023-04-10T16:22:25.339Z,14.10
2023-04-10T16:24:25.402Z,14.10
2023-04-10T16:26:25.388Z,14.10
2023-04-10T16:28:25.609Z,14.00
2023-04-10T16:30:25.369Z,14.00
2023-04-10T16:32:25.508Z,13.90
2023-04-10T16:34:30.255Z,13.90
2023-04-10T16:36:25.644Z,13.80
2023-04-10T16:38:25.380Z,13.70
2023-04-10T16:40:25.745Z,13.70
2023-04-10T16:42:25.519Z,13.60
2023-04-10T16:44:25.563Z,13.60
2023-04-10T16:46:25.464Z,13.60
2023-04-10T16:48:25.421Z,13.60
2023-04-10T16:50:25.442Z,13.60
2023-04-10T16:52:25.853Z,13.50
2023-04-10T16:55:25.616Z,13.50
2023-04-10T16:57:30.548Z,13.40
2023-04-10T16:59:25.910Z,13.40
2023-04-10T17:00:28.060Z,13.40
2023-04-10T17:03:25.572Z,13.40
2023-04-10T17:04:30.495Z,13.40
2023-04-10T17:07:25.583Z,13.40
2023-04-10T17:09:25.396Z,13.30
2023-04-10T17:11:25.404Z,13.30
2023-04-10T17:13:25.368Z,13.20
2023-04-10T17:15:25.469Z,13.10
2023-04-10T17:17:25.552Z,13.10
2023-04-10T17:19:25.627Z,13.10
2023-04-10T17:21:25.468Z,13.00
2023-04-10T17:23:25.454Z,13.00
2023-04-10T17:25:25.407Z,12.80
2023-04-10T17:27:25.445Z,12.80
2023-04-10T17:29:25.425Z,12.80
2023-04-10T17:31:26.885Z,12.80
2023-04-10T17:33:25.473Z,12.80
2023-04-10T17:35:25.528Z,12.80
2023-04-10T17:37:25.619Z,12.70
2023-04-10T17:39:25.465Z,12.70
2023-04-10T17:41:25.572Z,12.60
2023-04-10T17:43:25.434Z,12.60
2023-04-10T17:45:25.531Z,12.60
2023-04-10T17:47:25.511Z,12.60
2023-04-10T17:49:26.225Z,12.60
2023-04-10T17:51:25.522Z,12.50
2023-04-10T17:53:25.500Z,12.50
2023-04-10T17:55:25.486Z,12.50
2023-04-10T17:57:25.579Z,12.40
2023-04-10T17:59:25.483Z,12.40
2023-04-10T18:01:25.479Z,12.30
2023-04-10T18:03:25.602Z,12.30
2023-04-10T18:05:25.473Z,12.30
2023-04-10T18:07:25.505Z,12.30
2023-04-10T18:09:25.534Z,12.20
2023-04-10T18:11:25.521Z,12.10
2023-04-10T18:13:25.482Z,12.10
2023-04-10T18:15:25.566Z,12.20
2023-04-10T18:17:25.489Z,12.20
2023-04-10T18:19:25.468Z,12.10
2023-04-10T18:21:25.457Z,12.10
2023-04-10T18:23:25.511Z,12.10
2023-04-10T18:25:25.495Z,12.00
2023-04-10T18:27:25.962Z,12.00
2023-04-10T18:29:30.353Z,12.00
2023-04-10T18:31:25.671Z,11.90
2023-04-10T18:33:25.634Z,11.90
2023-04-10T18:35:25.525Z,11.90
2023-04-10T18:37:25.615Z,12.10
2023-04-10T18:39:25.475Z,12.20
2023-04-10T18:41:25.557Z,12.20
2023-04-10T18:43:25.481Z,12.20
2023-04-10T18:45:25.474Z,12.10
2023-04-10T18:47:25.529Z,12.10
2023-04-10T18:49:30.425Z,12.10
2023-04-10T18:51:25.495Z,12.10
2023-04-10T18:53:25.545Z,12.10
2023-04-10T18:55:25.554Z,12.10
2023-04-10T18:57:25.537Z,12.10
2023-04-10T18:59:25.541Z,12.00
2023-04-10T19:01:25.544Z,12.00
2023-04-10T19:03:26.421Z,12.00
2023-04-10T19:05:25.613Z,11.90
2023-04-10T19:07:25.634Z,11.90
2023-04-10T19:09:25.588Z,11.90
2023-04-10T19:11:25.729Z,12.10
2023-04-10T19:13:25.798Z,12.10
2023-04-10T19:15:25.520Z,12.10
2023-04-10T19:17:25.544Z,12.10
2023-04-10T19:19:25.614Z,12.10
2023-04-10T19:21:25.624Z,12.00
2023-04-10T19:23:25.596Z,11.90
2023-04-10T19:25:25.596Z,11.90
2023-04-10T19:27:25.526Z,11.80
2023-04-10T19:29:25.581Z,11.80
2023-04-10T19:31:25.615Z,11.70
2023-04-10T19:33:25.644Z,11.60
2023-04-10T19:35:28.478Z,11.60
2023-04-10T19:37:25.541Z,11.60
2023-04-10T19:39:25.986Z,11.60
2023-04-10T19:41:25.541Z,11.50
2023-04-10T19:43:25.681Z,11.40
2023-04-10T19:45:25.527Z,11.40
2023-04-10T19:47:25.589Z,11.40
2023-04-10T19:49:27.219Z,11.40
2023-04-10T19:51:30.304Z,11.40
2023-04-10T19:53:26.759Z,11.50
2023-04-10T19:55:25.581Z,11.50
2023-04-10T19:57:25.645Z,11.50
2023-04-10T19:59:25.772Z,11.40
2023-04-10T20:01:25.631Z,11.40
2023-04-10T20:03:25.808Z,11.60
2023-04-10T20:05:28.257Z,11.50
2023-04-10T20:07:25.566Z,11.50
2023-04-10T20:09:25.576Z,11.50
2023-04-10T20:11:25.550Z,11.50
2023-04-10T20:13:25.552Z,11.50
2023-04-10T20:15:25.643Z,11.50
2023-04-10T20:17:25.536Z,11.40
2023-04-10T20:19:25.547Z,11.40
2023-04-10T20:21:28.500Z,11.40
2023-04-10T20:23:25.539Z,11.40
2023-04-10T20:25:28.356Z,11.40
2023-04-10T20:27:25.545Z,11.40
2023-04-10T20:29:25.549Z,11.40
2023-04-10T20:31:25.803Z,11.20
2023-04-10T20:33:25.600Z,11.20
2023-04-10T20:35:25.548Z,11.20
2023-04-10T20:37:25.539Z,11.20
2023-04-10T20:39:25.656Z,11.20
2023-04-10T20:41:26.319Z,11.00
2023-04-10T20:44:25.625Z,11.00
2023-04-10T20:46:25.665Z,11.00
2023-04-10T20:48:25.749Z,11.00
2023-04-10T20:50:27.081Z,11.00
2023-04-10T20:52:31.857Z,10.90
2023-04-10T20:54:25.667Z,10.90
2023-04-10T20:56:36.516Z,10.80
2023-04-10T20:58:25.606Z,10.80
2023-04-10T21:00:25.590Z,10.80
2023-04-10T21:02:25.810Z,10.80
2023-04-10T21:04:30.586Z,10.80
2023-04-10T21:06:25.761Z,10.70
2023-04-10T21:08:25.602Z,10.70
2023-04-10T21:10:25.784Z,10.70
2023-04-10T21:12:25.710Z,10.70
2023-04-10T21:14:25.665Z,10.70
2023-04-10T21:16:25.646Z,10.70
2023-04-10T21:18:25.627Z,10.70
2023-04-10T21:20:28.761Z,10.70
2023-04-10T21:22:27.470Z,10.70
2023-04-10T21:24:30.480Z,10.70
2023-04-10T21:26:25.579Z,10.70
2023-04-10T21:28:25.750Z,10.70
2023-04-10T21:32:25.912Z,10.80
2023-04-10T21:36:25.663Z,10.80
2023-04-10T21:38:25.786Z,10.80
2023-04-10T21:41:48.168Z,10.80
2023-04-10T21:43:48.025Z,10.80
2023-04-10T21:45:48.013Z,10.80
2023-04-10T21:47:48.044Z,10.80
2023-04-10T21:49:49.065Z,10.80
2023-04-10T21:51:48.069Z,10.80
2023-04-10T21:53:47.996Z,10.80
2023-04-10T21:55:48.382Z,10.80
2023-04-10T21:57:47.995Z,10.80
2023-04-10T21:59:48.100Z,10.80
2023-04-10T22:01:48.566Z,10.70
2023-04-10T22:03:49.473Z,10.70
2023-04-10T22:05:48.116Z,10.70
2023-04-10T22:07:48.054Z,10.70
2023-04-10T22:10:52.944Z,10.80
2023-04-10T22:12:48.928Z,10.80
2023-04-10T22:14:48.102Z,10.80
2023-04-10T22:15:51.698Z,10.80
2023-04-10T22:18:48.023Z,10.80
2023-04-10T22:20:47.973Z,10.80
2023-04-10T22:22:52.894Z,10.80
2023-04-10T22:24:48.018Z,10.80
2023-04-10T22:26:48.052Z,10.80
2023-04-10T22:28:48.156Z,10.80
2023-04-10T22:30:48.054Z,10.80
2023-04-10T22:32:48.132Z,10.80
2023-04-10T22:34:48.108Z,10.70
2023-04-10T22:36:49.916Z,10.70
2023-04-10T22:38:48.079Z,10.80
2023-04-10T22:40:52.909Z,10.80
2023-04-10T22:42:48.009Z,10.80
2023-04-10T22:44:48.120Z,10.80
2023-04-10T22:46:49.634Z,10.70
2023-04-10T22:48:48.265Z,10.70
2023-04-10T22:50:48.057Z,10.70
2023-04-10T22:52:48.060Z,10.60
2023-04-10T22:54:48.118Z,10.60
2023-04-10T22:56:51.784Z,10.60
2023-04-10T22:58:49.581Z,10.70
2023-04-10T23:00:48.087Z,10.70
2023-04-10T23:02:48.122Z,10.70
2023-04-10T23:04:48.101Z,10.80
2023-04-10T23:06:48.120Z,10.80
2023-04-10T23:08:48.134Z,10.80
2023-04-10T23:10:48.046Z,10.80
2023-04-10T23:12:48.068Z,10.80
2023-04-10T23:14:48.035Z,10.80
2023-04-10T23:16:48.248Z,10.80
2023-04-10T23:18:48.087Z,10.80
2023-04-10T23:20:48.142Z,10.80
2023-04-10T23:22:48.093Z,10.80
2023-04-10T23:24:48.113Z,10.80
2023-04-10T23:26:48.072Z,10.80
2023-04-10T23:28:48.125Z,10.80
2023-04-10T23:30:48.054Z,10.80
2023-04-10T23:32:48.071Z,10.70
2023-04-10T23:34:51.745Z,10.70
2023-04-10T23:36:48.127Z,10.70
2023-04-10T23:38:48.056Z,10.70
2023-04-10T23:40:50.239Z,10.80
2023-04-10T23:42:48.090Z,10.80
2023-04-10T23:44:48.063Z,10.80
2023-04-10T23:46:48.112Z,10.80
2023-04-10T23:48:48.184Z,10.80
2023-04-10T23:50:48.137Z,10.90
2023-04-10T23:52:48.124Z,10.90
2023-04-10T23:54:48.225Z,11.10
2023-04-10T23:56:49.989Z,11.10
2023-04-10T23:58:48.127Z,11.00
